createdAt,value
2019-05-05T00:01:09.312Z,99.90
2019-05-05T00:03:56.519Z,99.90
2019-05-05T00:06:26.040Z,99.90
2019-05-05T00:08:55.635Z,99.90
2019-05-05T00:11:29.493Z,99.90
2019-05-05T00:14:06.633Z,99.90
2019-05-05T00:16:37.876Z,99.90
2019-05-05T00:19:07.401Z,99.90
2019-05-05T00:21:36.831Z,99.90
2019-05-05T00:24:06.383Z,99.90
2019-05-05T00:26:35.884Z,99.90
2019-05-05T00:29:05.347Z,99.90
2019-05-05T00:31:35.060Z,99.90
2019-05-05T00:34:05.270Z,99.90
2019-05-05T00:36:35.280Z,99.90
2019-05-05T00:39:07.463Z,99.90
2019-05-05T00:41:37.101Z,99.90
2019-05-05T00:44:06.701Z,99.90
2019-05-05T00:46:54.914Z,99.90
2019-05-05T00:49:27.064Z,99.90
2019-05-05T00:51:56.665Z,99.90
2019-05-05T00:54:26.139Z,99.90
2019-05-05T00:56:55.577Z,99.90
2019-05-05T00:59:26.684Z,99.90
2019-05-05T01:02:09.951Z,99.90
2019-05-05T01:04:41.126Z,99.90
2019-05-05T01:07:10.698Z,99.90
2019-05-05T01:09:41.865Z,99.90
2019-05-05T01:12:11.302Z,99.90
2019-05-05T01:14:40.767Z,99.90
2019-05-05T01:17:10.195Z,99.90
2019-05-05T01:19:39.653Z,99.90
2019-05-05T01:22:09.152Z,99.90
2019-05-05T01:24:38.689Z,99.90
2019-05-05T01:27:08.254Z,99.90
2019-05-05T01:29:37.721Z,99.90
2019-05-05T01:32:08.871Z,99.90
2019-05-05T01:34:44.393Z,99.90
2019-05-05T01:37:25.446Z,99.90
2019-05-05T01:39:56.713Z,99.90
2019-05-05T01:42:26.297Z,99.90
2019-05-05T01:44:55.766Z,99.90
2019-05-05T01:47:25.517Z,99.90
2019-05-05T01:49:55.058Z,99.90
2019-05-05T01:52:25.418Z,99.90
2019-05-05T01:54:55.009Z,99.90
2019-05-05T01:57:25.256Z,99.90
2019-05-05T01:59:55.421Z,99.90
2019-05-05T02:02:25.215Z,99.90
2019-05-05T02:04:55.381Z,99.90
2019-05-05T02:07:26.204Z,99.90
2019-05-05T02:09:55.751Z,99.90
2019-05-05T02:12:25.333Z,99.90
2019-05-05T02:14:55.218Z,99.90
2019-05-05T02:17:24.974Z,99.90
2019-05-05T02:19:55.345Z,99.90
2019-05-05T02:22:25.442Z,99.90
2019-05-05T02:24:56.042Z,99.90
2019-05-05T02:27:25.650Z,99.90
2019-05-05T02:29:56.879Z,99.90
2019-05-05T02:32:36.139Z,99.90
2019-05-05T02:35:08.698Z,99.90
2019-05-05T02:37:38.232Z,99.90
2019-05-05T02:40:09.978Z,99.90
2019-05-05T02:42:40.660Z,99.90
2019-05-05T02:48:14.869Z,99.90
2019-05-05T02:50:55.864Z,99.90
2019-05-05T02:53:24.736Z,99.90
2019-05-05T02:55:57.916Z,99.90
2019-05-05T02:58:28.759Z,99.90
2019-05-05T03:01:00.749Z,99.90
2019-05-05T03:03:31.165Z,99.90
2019-05-05T03:06:00.688Z,99.90
2019-05-05T03:08:30.405Z,99.90
2019-05-05T03:11:01.294Z,99.90
2019-05-05T03:13:33.731Z,99.90
2019-05-05T03:16:20.826Z,99.90
2019-05-05T03:18:51.039Z,99.90
2019-05-05T03:21:21.520Z,99.90
2019-05-05T03:23:51.132Z,99.90
2019-05-05T03:26:20.913Z,99.90
2019-05-05T03:28:58.147Z,99.90
2019-05-05T03:31:27.735Z,99.90
2019-05-05T03:33:57.334Z,99.90
2019-05-05T03:36:30.489Z,99.90
2019-05-05T03:39:00.135Z,99.90
2019-05-05T03:41:35.518Z,99.90
2019-05-05T03:44:25.277Z,99.90
2019-05-05T03:46:55.266Z,99.90
2019-05-05T03:49:25.680Z,99.90
2019-05-05T03:51:55.263Z,99.90
2019-05-05T03:54:24.874Z,99.90
2019-05-05T03:57:10.054Z,99.90
2019-05-05T03:59:41.598Z,99.90
2019-05-05T04:02:14.183Z,99.90
2019-05-05T04:04:54.951Z,99.90
2019-05-05T04:07:25.774Z,99.90
2019-05-05T04:09:55.244Z,99.90
2019-05-05T04:12:25.462Z,99.90
2019-05-05T04:14:55.006Z,99.90
2019-05-05T04:17:44.162Z,99.90
2019-05-05T04:20:21.088Z,99.90
2019-05-05T04:22:50.527Z,99.90
2019-05-05T04:25:19.997Z,99.90
2019-05-05T04:27:49.450Z,99.90
2019-05-05T04:30:18.994Z,99.90
2019-05-05T04:32:48.500Z,99.90
2019-05-05T04:35:17.987Z,99.90
2019-05-05T04:37:47.421Z,99.90
2019-05-05T04:40:17.033Z,99.90
2019-05-05T04:42:46.559Z,99.90
2019-05-05T04:45:16.238Z,99.90
2019-05-05T04:47:50.029Z,99.90
2019-05-05T04:50:21.146Z,99.90
2019-05-05T04:52:54.085Z,99.90
2019-05-05T04:55:24.484Z,99.90
2019-05-05T04:57:54.162Z,99.90
2019-05-05T05:00:24.166Z,99.90
2019-05-05T05:02:58.302Z,99.90
2019-05-05T05:05:34.889Z,99.90
2019-05-05T05:08:04.402Z,99.90
2019-05-05T05:10:34.612Z,99.90
2019-05-05T05:13:04.713Z,99.90
2019-05-05T05:15:34.202Z,99.90
2019-05-05T05:18:05.294Z,99.90
2019-05-05T05:20:34.766Z,99.90
2019-05-05T05:23:04.232Z,99.90
2019-05-05T05:25:34.619Z,99.90
2019-05-05T05:28:04.387Z,99.90
2019-05-05T05:30:34.971Z,99.90
2019-05-05T05:33:04.975Z,99.90
2019-05-05T05:35:34.418Z,99.90
2019-05-05T05:38:04.668Z,99.90
2019-05-05T05:40:38.822Z,99.90
2019-05-05T05:43:09.943Z,99.90
2019-05-05T05:45:54.189Z,99.90
2019-05-05T05:48:25.466Z,99.90
2019-05-05T05:50:56.557Z,99.90
2019-05-05T05:53:26.026Z,99.90
2019-05-05T05:55:55.473Z,99.90
2019-05-05T05:58:24.944Z,99.90
2019-05-05T06:00:56.236Z,99.90
2019-05-05T06:03:25.712Z,99.90
2019-05-05T06:05:55.212Z,99.90
2019-05-05T06:08:24.689Z,99.90
2019-05-05T06:10:54.684Z,99.90
2019-05-05T06:13:24.355Z,99.90
2019-05-05T06:15:53.834Z,99.90
2019-05-05T06:18:24.334Z,99.90
2019-05-05T06:20:53.976Z,99.90
2019-05-05T06:23:24.024Z,99.90
2019-05-05T06:25:55.163Z,99.90
2019-05-05T06:28:24.796Z,99.90
2019-05-05T06:30:54.777Z,99.90
2019-05-05T06:33:24.339Z,99.90
2019-05-05T06:35:53.788Z,99.90
2019-05-05T06:38:24.126Z,99.90
2019-05-05T06:40:55.384Z,99.90
2019-05-05T06:43:26.494Z,99.90
2019-05-05T06:46:00.526Z,99.90
2019-05-05T06:48:29.998Z,99.90
2019-05-05T06:50:59.452Z,99.90
2019-05-05T06:53:28.932Z,99.90
2019-05-05T06:55:58.458Z,99.90
2019-05-05T06:58:28.002Z,99.90
2019-05-05T07:00:57.478Z,99.90
2019-05-05T07:03:26.921Z,99.90
2019-05-05T07:05:56.396Z,99.90
2019-05-05T07:08:25.919Z,99.90
2019-05-05T07:10:55.478Z,99.90
2019-05-05T07:13:24.931Z,99.90
2019-05-05T07:15:54.478Z,99.90
2019-05-05T07:18:24.659Z,99.90
2019-05-05T07:20:54.597Z,99.90
2019-05-05T07:23:24.609Z,99.90
2019-05-05T07:25:54.916Z,99.90
2019-05-05T07:28:25.805Z,99.90
2019-05-05T07:30:55.296Z,99.90
2019-05-05T07:33:24.730Z,99.90
2019-05-05T07:36:14.429Z,99.90
2019-05-05T07:38:44.304Z,99.90
2019-05-05T07:41:14.169Z,99.90
2019-05-05T07:43:43.802Z,99.90
2019-05-05T07:46:13.648Z,99.90
2019-05-05T07:48:44.222Z,99.90
2019-05-05T07:51:14.283Z,99.90
2019-05-05T07:53:44.352Z,99.90
2019-05-05T07:56:14.586Z,99.90
2019-05-05T07:58:44.064Z,99.90
2019-05-05T08:01:14.172Z,99.90
2019-05-05T08:03:44.547Z,99.90
2019-05-05T08:06:14.655Z,99.90
2019-05-05T08:08:44.530Z,99.90
2019-05-05T08:11:14.713Z,99.90
2019-05-05T08:13:44.488Z,99.90
2019-05-05T08:16:27.448Z,99.90
2019-05-05T08:19:01.205Z,99.90
2019-05-05T08:21:30.888Z,99.90
2019-05-05T08:24:01.975Z,99.90
2019-05-05T08:26:40.143Z,99.90
2019-05-05T08:29:26.490Z,99.90
2019-05-05T08:32:06.732Z,99.20
2019-05-05T08:34:36.174Z,99.70
2019-05-05T08:37:05.710Z,99.90
2019-05-05T08:39:35.154Z,99.90
2019-05-05T08:42:04.771Z,98.50
2019-05-05T08:44:34.437Z,99.50
2019-05-05T08:47:04.561Z,99.30
2019-05-05T08:49:34.985Z,98.60
2019-05-05T08:52:04.594Z,98.40
2019-05-05T08:54:34.504Z,99.90
2019-05-05T08:57:04.361Z,99.00
2019-05-05T08:59:33.973Z,99.50
2019-05-05T09:02:04.485Z,99.10
2019-05-05T09:04:34.383Z,98.30
2019-05-05T09:07:05.026Z,98.30
2019-05-05T09:09:35.788Z,96.80
2019-05-05T09:12:05.389Z,95.10
2019-05-05T09:14:34.851Z,96.30
2019-05-05T09:17:04.605Z,95.70
2019-05-05T09:19:34.530Z,95.40
2019-05-05T09:22:06.697Z,94.40
2019-05-05T09:24:40.338Z,95.20
2019-05-05T09:27:24.832Z,94.50
2019-05-05T09:29:54.557Z,94.00
2019-05-05T09:32:24.355Z,94.70
2019-05-05T09:34:54.119Z,94.40
2019-05-05T09:37:24.665Z,93.90
2019-05-05T09:39:55.278Z,94.00
2019-05-05T09:42:24.717Z,95.60
2019-05-05T09:44:54.274Z,92.70
2019-05-05T09:47:24.666Z,95.60
2019-05-05T09:49:54.954Z,94.00
2019-05-05T09:52:24.609Z,95.90
2019-05-05T09:54:54.548Z,96.10
2019-05-05T09:57:24.088Z,97.70
2019-05-05T09:59:55.265Z,95.00
2019-05-05T10:02:24.776Z,95.30
2019-05-05T10:04:54.756Z,95.50
2019-05-05T10:07:25.418Z,95.90
2019-05-05T10:09:54.883Z,92.10
2019-05-05T10:12:24.335Z,94.40
2019-05-05T10:14:54.280Z,90.80
2019-05-05T10:17:24.393Z,88.20
2019-05-05T10:19:55.170Z,93.20
2019-05-05T10:22:24.616Z,88.50
2019-05-05T10:25:09.267Z,87.10
2019-05-05T10:27:44.883Z,90.80
2019-05-05T10:30:14.279Z,91.40
2019-05-05T10:32:43.935Z,94.40
2019-05-05T10:35:14.346Z,94.90
2019-05-05T10:37:44.010Z,94.60
2019-05-05T10:40:15.278Z,93.60
2019-05-05T10:42:50.904Z,91.60
2019-05-05T10:45:24.482Z,90.50
2019-05-05T10:47:54.234Z,91.50
2019-05-05T10:50:24.671Z,92.50
2019-05-05T10:52:55.314Z,95.10
2019-05-05T10:55:24.840Z,96.30
2019-05-05T10:57:54.569Z,95.50
2019-05-05T11:00:39.066Z,94.80
2019-05-05T11:03:08.684Z,93.00
2019-05-05T11:05:38.249Z,92.20
2019-05-05T11:08:07.832Z,94.50
2019-05-05T11:10:39.043Z,93.30
2019-05-05T11:13:08.691Z,92.40
2019-05-05T11:15:38.287Z,93.30
2019-05-05T11:18:07.908Z,84.60
2019-05-05T11:20:37.575Z,91.50
2019-05-05T11:23:07.159Z,93.10
2019-05-05T11:25:36.773Z,80.60
2019-05-05T11:28:07.951Z,79.40
2019-05-05T11:30:43.860Z,82.50
2019-05-05T11:33:27.226Z,78.30
2019-05-05T11:36:16.482Z,80.00
2019-05-05T11:38:46.094Z,88.40
2019-05-05T11:41:15.557Z,85.00
2019-05-05T11:43:45.071Z,90.80
2019-05-05T11:46:14.547Z,86.10
2019-05-05T11:48:44.102Z,84.40
2019-05-05T11:51:15.089Z,78.20
2019-05-05T11:53:44.976Z,77.30
2019-05-05T11:56:14.615Z,83.60
2019-05-05T11:58:59.672Z,83.10
2019-05-05T12:01:29.206Z,83.30
2019-05-05T12:03:58.656Z,76.70
2019-05-05T12:06:28.120Z,72.40
2019-05-05T12:08:58.948Z,80.10
2019-05-05T12:11:28.388Z,81.10
2019-05-05T12:13:58.495Z,85.10
2019-05-05T12:16:31.165Z,83.30
2019-05-05T12:19:02.248Z,78.10
2019-05-05T12:21:33.617Z,78.10
2019-05-05T12:24:04.480Z,75.90
2019-05-05T12:26:44.439Z,75.20
2019-05-05T12:29:14.147Z,79.50
2019-05-05T12:31:45.282Z,79.70
2019-05-05T12:34:14.806Z,78.40
2019-05-05T12:36:44.574Z,80.90
2019-05-05T12:39:14.325Z,76.60
2019-05-05T12:41:44.070Z,80.40
2019-05-05T12:44:15.166Z,72.80
2019-05-05T12:47:01.235Z,68.10
2019-05-05T12:49:33.710Z,62.50
2019-05-05T12:52:04.635Z,59.70
2019-05-05T12:54:34.191Z,59.30
2019-05-05T12:57:04.374Z,59.00
2019-05-05T12:59:34.066Z,61.10
2019-05-05T13:02:03.994Z,62.50
2019-05-05T13:04:33.938Z,61.90
2019-05-05T13:07:07.905Z,62.60
2019-05-05T13:09:34.821Z,62.50
2019-05-05T13:12:04.563Z,58.80
2019-05-05T13:14:34.187Z,60.50
2019-05-05T13:17:03.818Z,56.40
2019-05-05T13:19:34.977Z,56.60
2019-05-05T13:22:06.224Z,53.40
2019-05-05T13:24:46.351Z,55.90
2019-05-05T13:27:26.300Z,51.50
2019-05-05T13:29:55.802Z,54.00
2019-05-05T13:32:25.268Z,59.00
2019-05-05T13:34:55.788Z,62.80
2019-05-05T13:37:26.318Z,63.60
2019-05-05T13:39:55.758Z,66.60
2019-05-05T13:42:25.287Z,69.10
2019-05-05T13:45:03.809Z,70.30
2019-05-05T13:47:34.417Z,71.10
2019-05-05T13:50:11.364Z,73.50
2019-05-05T13:52:40.990Z,76.80
2019-05-05T13:55:10.665Z,80.30
2019-05-05T13:57:40.202Z,82.30
2019-05-05T14:00:14.941Z,85.40
2019-05-05T14:02:44.713Z,90.30
2019-05-05T14:05:14.467Z,92.80
2019-05-05T14:07:44.095Z,93.80
2019-05-05T14:10:14.461Z,94.20
2019-05-05T14:12:44.167Z,94.90
2019-05-05T14:15:17.079Z,94.10
2019-05-05T14:17:46.758Z,93.10
2019-05-05T14:20:17.397Z,93.80
2019-05-05T14:22:47.001Z,93.30
2019-05-05T14:25:18.366Z,93.00
2019-05-05T14:27:48.043Z,93.50
2019-05-05T14:30:34.113Z,91.20
2019-05-05T14:33:04.335Z,91.30
2019-05-05T14:35:44.210Z,90.40
2019-05-05T14:38:24.188Z,90.00
2019-05-05T14:40:53.836Z,90.00
2019-05-05T14:43:23.989Z,92.40
2019-05-05T14:45:54.649Z,90.00
2019-05-05T14:48:24.273Z,86.10
2019-05-05T14:50:54.370Z,89.60
2019-05-05T14:53:24.182Z,82.50
2019-05-05T14:55:53.810Z,82.20
2019-05-05T14:58:23.232Z,80.70
2019-05-05T15:00:52.669Z,75.80
2019-05-05T15:03:24.179Z,79.60
2019-05-05T15:05:57.556Z,80.90
2019-05-05T15:08:33.363Z,84.80
2019-05-05T15:11:04.020Z,90.40
2019-05-05T15:13:33.704Z,94.00
2019-05-05T15:16:04.009Z,97.20
2019-05-05T15:18:34.819Z,99.00
2019-05-05T15:21:04.462Z,99.90
2019-05-05T15:23:34.516Z,99.90
2019-05-05T15:26:04.557Z,99.90
2019-05-05T15:28:35.044Z,99.90
2019-05-05T15:31:04.622Z,99.90
2019-05-05T15:33:34.086Z,99.90
2019-05-05T15:36:04.404Z,99.90
2019-05-05T15:38:34.825Z,99.90
2019-05-05T15:41:04.677Z,99.90
2019-05-05T15:43:34.191Z,99.90
2019-05-05T15:46:04.466Z,99.90
2019-05-05T15:48:35.201Z,99.90
2019-05-05T15:51:04.726Z,99.90
2019-05-05T15:53:34.238Z,99.90
2019-05-05T15:56:04.503Z,99.90
2019-05-05T15:58:35.183Z,99.90
2019-05-05T16:01:04.845Z,99.90
2019-05-05T16:03:34.277Z,99.90
2019-05-05T16:06:03.904Z,99.90
2019-05-05T16:08:33.972Z,99.90
2019-05-05T16:11:03.916Z,99.90
2019-05-05T16:13:35.275Z,99.90
2019-05-05T16:16:18.189Z,99.70
2019-05-05T16:19:02.450Z,99.40
2019-05-05T16:21:23.591Z,98.90
2019-05-05T16:23:55.189Z,98.00
2019-05-05T16:26:24.693Z,98.90
2019-05-05T16:28:55.266Z,99.50
2019-05-05T16:31:27.438Z,99.50
2019-05-05T16:33:56.079Z,99.90
2019-05-05T16:36:25.542Z,99.90
2019-05-05T16:38:54.983Z,99.90
2019-05-05T16:41:24.446Z,99.80
2019-05-05T16:43:53.894Z,99.80
2019-05-05T16:46:23.940Z,99.90
2019-05-05T16:48:54.152Z,99.90
2019-05-05T16:51:25.357Z,99.90
2019-05-05T16:53:56.594Z,99.90
2019-05-05T16:56:26.309Z,99.90
2019-05-05T16:58:55.748Z,99.90
2019-05-05T17:01:25.281Z,99.90
2019-05-05T17:04:08.191Z,99.90
2019-05-05T17:06:26.023Z,99.90
2019-05-05T17:08:55.466Z,99.90
2019-05-05T17:11:24.938Z,99.90
2019-05-05T17:13:56.050Z,99.90
2019-05-05T17:16:34.999Z,99.90
2019-05-05T17:19:08.568Z,99.90
2019-05-05T17:21:53.393Z,99.90
2019-05-05T17:24:23.945Z,99.90
2019-05-05T17:26:54.914Z,99.90
2019-05-05T17:29:24.657Z,99.90
2019-05-05T17:31:54.216Z,99.90
2019-05-05T17:34:24.686Z,99.90
2019-05-05T17:36:56.281Z,99.90
2019-05-05T17:39:27.365Z,99.90
2019-05-05T17:41:58.539Z,99.90
2019-05-05T17:44:29.621Z,99.90
2019-05-05T17:47:00.734Z,99.90
2019-05-05T17:49:31.886Z,99.90
2019-05-05T17:52:03.669Z,99.90
2019-05-05T17:54:34.950Z,99.90
2019-05-05T17:57:04.565Z,99.90
2019-05-05T17:59:34.006Z,99.90
2019-05-05T18:02:04.799Z,99.90
2019-05-05T18:04:34.460Z,99.90
2019-05-05T18:07:05.744Z,99.90
2019-05-05T18:09:53.832Z,99.90
2019-05-05T18:12:40.429Z,99.90
2019-05-05T18:15:14.523Z,99.90
2019-05-05T18:17:44.053Z,99.90
2019-05-05T18:20:13.732Z,99.90
2019-05-05T18:22:43.502Z,99.90
2019-05-05T18:25:14.320Z,99.90
2019-05-05T18:27:43.784Z,99.90
2019-05-05T18:30:13.306Z,99.90
2019-05-05T18:32:42.764Z,99.90
2019-05-05T18:35:13.541Z,99.90
2019-05-05T18:37:43.629Z,99.90
2019-05-05T18:40:14.571Z,99.90
2019-05-05T18:42:44.643Z,99.90
2019-05-05T18:45:16.108Z,99.90
2019-05-05T18:47:45.578Z,99.90
2019-05-05T18:50:15.167Z,99.90
2019-05-05T18:52:47.165Z,99.90
2019-05-05T18:55:15.923Z,99.90
2019-05-05T18:57:45.479Z,99.90
2019-05-05T19:00:17.691Z,99.90
2019-05-05T19:02:48.828Z,99.90
2019-05-05T19:05:25.717Z,99.90
2019-05-05T19:08:05.812Z,99.90
2019-05-05T19:10:35.254Z,99.90
2019-05-05T19:13:04.798Z,99.90
2019-05-05T19:15:34.923Z,99.90
2019-05-05T19:18:06.548Z,99.90
2019-05-05T19:20:40.211Z,99.90
2019-05-05T19:23:09.819Z,99.90
2019-05-05T19:25:39.337Z,99.90
2019-05-05T19:28:08.889Z,99.90
2019-05-05T19:30:38.408Z,99.90
2019-05-05T19:33:08.086Z,99.90
2019-05-05T19:35:44.284Z,99.90
2019-05-05T19:38:08.779Z,99.90
2019-05-05T19:40:38.280Z,99.90
2019-05-05T19:43:07.793Z,99.90
2019-05-05T19:45:37.258Z,99.90
2019-05-05T19:48:06.703Z,99.90
2019-05-05T19:50:37.813Z,99.90
2019-05-05T19:53:08.978Z,99.90
2019-05-05T19:55:38.441Z,99.90
2019-05-05T19:58:07.904Z,99.90
2019-05-05T20:00:38.601Z,99.90
2019-05-05T20:03:08.290Z,99.90
2019-05-05T20:05:37.763Z,99.90
2019-05-05T20:08:07.238Z,99.90
2019-05-05T20:10:36.705Z,99.90
2019-05-05T20:13:06.173Z,99.90
2019-05-05T20:15:44.262Z,99.90
2019-05-05T20:18:14.263Z,99.90
2019-05-05T20:20:44.517Z,99.90
2019-05-05T20:23:14.078Z,99.90
2019-05-05T20:25:44.828Z,99.90
2019-05-05T20:28:14.576Z,99.90
2019-05-05T20:30:44.019Z,99.90
2019-05-05T20:33:20.892Z,99.90
2019-05-05T20:35:55.004Z,99.90
2019-05-05T20:38:28.807Z,99.90
2019-05-05T20:41:13.946Z,99.90
2019-05-05T20:43:44.787Z,99.90
2019-05-05T20:46:14.197Z,99.90
2019-05-05T20:48:44.873Z,99.90
2019-05-05T20:51:14.618Z,99.90
2019-05-05T20:53:45.903Z,99.90
2019-05-05T20:56:15.459Z,99.90
2019-05-05T20:58:44.972Z,99.90
2019-05-05T21:01:14.437Z,99.90
2019-05-05T21:03:43.943Z,99.90
2019-05-05T21:06:13.987Z,99.90
2019-05-05T21:08:44.113Z,99.90
2019-05-05T21:11:14.269Z,99.90
2019-05-05T21:13:45.203Z,99.90
2019-05-05T21:16:14.838Z,99.90
2019-05-05T21:18:44.349Z,99.90
2019-05-05T21:21:15.456Z,99.90
2019-05-05T21:23:55.566Z,99.90
2019-05-05T21:26:26.770Z,99.90
2019-05-05T21:28:56.234Z,99.90
2019-05-05T21:31:25.697Z,99.90
2019-05-05T21:33:55.141Z,99.90
2019-05-05T21:36:24.616Z,99.90
2019-05-05T21:38:54.763Z,99.90
2019-05-05T21:41:24.646Z,99.90
2019-05-05T21:43:54.232Z,99.90
2019-05-05T21:46:24.143Z,99.90
2019-05-05T21:48:54.314Z,99.90
2019-05-05T21:51:40.958Z,99.90
2019-05-05T21:54:28.579Z,99.90
2019-05-05T21:57:15.574Z,99.90
2019-05-05T21:59:55.265Z,99.90
2019-05-05T22:02:16.098Z,99.90
2019-05-05T22:04:45.682Z,99.90
2019-05-05T22:07:15.221Z,99.90
2019-05-05T22:09:44.722Z,99.90
2019-05-05T22:12:14.334Z,99.90
2019-05-05T22:14:44.076Z,99.90
2019-05-05T22:17:14.623Z,99.90
2019-05-05T22:19:45.828Z,99.90
2019-05-05T22:22:16.934Z,99.90
2019-05-05T22:24:46.386Z,99.90
2019-05-05T22:27:15.858Z,99.90
2019-05-05T22:29:45.310Z,99.90
2019-05-05T22:32:14.821Z,99.90
2019-05-05T22:34:44.485Z,99.90
2019-05-05T22:37:14.348Z,99.90
2019-05-05T22:39:44.525Z,99.90
2019-05-05T22:42:15.797Z,99.90
2019-05-05T22:44:45.332Z,99.90
2019-05-05T22:47:14.795Z,99.90
2019-05-05T22:49:44.470Z,99.90
2019-05-05T22:52:14.534Z,99.90
2019-05-05T22:54:44.383Z,99.90
2019-05-05T22:57:14.154Z,99.90
2019-05-05T22:59:43.583Z,99.90
2019-05-05T23:02:14.952Z,99.90
2019-05-05T23:04:55.046Z,99.90
2019-05-05T23:07:26.217Z,99.90
2019-05-05T23:09:55.666Z,99.90
2019-05-05T23:12:25.132Z,99.90
2019-05-05T23:14:54.735Z,99.90
2019-05-05T23:17:28.863Z,99.90
2019-05-05T23:20:16.416Z,99.90
2019-05-05T23:22:46.761Z,99.90
2019-05-05T23:25:17.773Z,99.90
2019-05-05T23:27:47.986Z,99.90
2019-05-05T23:30:23.557Z,99.90
2019-05-05T23:32:54.638Z,99.90
2019-05-05T23:35:24.011Z,99.90
2019-05-05T23:37:55.284Z,99.90
2019-05-05T23:40:26.737Z,99.90
2019-05-05T23:42:56.206Z,99.90
2019-05-05T23:45:25.656Z,99.90
2019-05-05T23:47:55.682Z,99.90
2019-05-05T23:50:25.140Z,99.90
2019-05-05T23:52:54.868Z,99.90
2019-05-05T23:55:24.408Z,99.90
2019-05-05T23:57:54.786Z,99.90
